Time;durP1;ratioP1;P1;durP2;ratioP2;P2;SDS_P1;SDS_P2;PMS_P1;PMS_P2;Temp;Humidity;BMP_temperature;BMP_pressure;BME280_temperature;BME280_humidity;BME280_pressure;Samples;Min_cycle;Max_cycle;Signal;HPM_P1;HPM_P2
2021/11/26 00:00:59;;;;;;;8.18;6.90;;;;;;;11.71;54.02;99431.76;1825767;77;21006;-62
2021/11/26 00:03:26;;;;;;;8.10;6.92;;;;;;;11.70;53.93;99419.45;1835372;77;21038;-63
2021/11/26 00:05:52;;;;;;;8.23;6.37;;;;;;;11.71;53.87;99414.98;1826216;77;21006;-63
2021/11/26 00:08:20;;;;;;;7.22;6.10;;;;;;;11.70;53.81;99411.98;1832645;77;21050;-63
2021/11/26 00:10:47;;;;;;;7.33;6.12;;;;;;;11.70;53.75;99401.34;1829326;77;21514;-64
2021/11/26 00:13:14;;;;;;;7.60;6.78;;;;;;;11.70;53.67;99401.34;1838136;77;21640;-64
2021/11/26 00:15:41;;;;;;;7.03;6.20;;;;;;;11.71;53.63;99417.64;1836066;77;21001;-63
2021/11/26 00:18:17;;;;;;;6.85;6.22;;;;;;;11.70;53.57;99409.32;1813221;77;21557;-61
2021/11/26 00:20:40;;;;;;;7.05;6.00;;;;;;;11.69;53.50;99423.14;1796335;77;21148;-62
2021/11/26 00:23:07;;;;;;;6.92;6.17;;;;;;;11.69;53.45;99395.20;1791473;77;20989;-62
2021/11/26 00:25:34;;;;;;;7.28;6.12;;;;;;;11.69;53.39;99383.73;1802171;77;21092;-62
2021/11/26 00:28:01;;;;;;;8.40;6.70;;;;;;;11.69;53.33;99390.39;1802327;78;21016;-62
2021/11/26 00:30:28;;;;;;;6.95;6.00;;;;;;;11.69;53.27;99393.05;1817634;78;20981;-62
2021/11/26 00:32:55;;;;;;;6.22;5.50;;;;;;;11.69;53.25;99387.22;1804079;78;21130;-61
2021/11/26 00:35:23;;;;;;;6.87;5.95;;;;;;;11.68;53.21;99379.41;1807463;77;21119;-62
2021/11/26 00:37:49;;;;;;;7.12;6.33;;;;;;;11.68;53.16;99387.39;1795794;77;21068;-61
2021/11/26 00:40:16;;;;;;;7.25;6.45;;;;;;;11.49;53.11;99349.70;1803211;77;21003;-62
2021/11/26 00:42:44;;;;;;;6.97;5.95;;;;;;;11.67;53.10;99386.58;1818171;78;20991;-62
2021/11/26 00:45:12;;;;;;;7.53;6.10;;;;;;;11.68;53.04;99372.76;1809332;77;21005;-62
2021/11/26 00:47:39;;;;;;;7.67;6.25;;;;;;;11.68;53.00;99381.55;1812563;77;21018;-63
2021/11/26 00:50:07;;;;;;;7.08;5.87;;;;;;;11.67;52.96;99363.95;1820248;77;21004;-63
2021/11/26 00:52:34;;;;;;;8.95;6.03;;;;;;;11.67;52.92;99370.61;1804506;77;21158;-62
2021/11/26 00:55:02;;;;;;;7.20;6.35;;;;;;;11.66;52.89;99356.16;1805478;77;21034;-62
2021/11/26 00:57:28;;;;;;;7.53;6.45;;;;;;;11.67;52.85;99355.16;1815942;78;21130;-62
2021/11/26 00:59:55;;;;;;;7.33;6.30;;;;;;;11.66;52.83;99345.51;1819151;77;21547;-63
2021/11/26 01:02:22;;;;;;;7.03;6.25;;;;;;;11.65;52.79;99352.67;1818549;78;21452;-62
2021/11/26 01:04:49;;;;;;;6.65;5.87;;;;;;;11.66;52.81;99324.22;1810315;77;21029;-62
2021/11/26 01:07:15;;;;;;;6.80;5.78;;;;;;;11.65;52.77;99338.04;1810271;78;21066;-62
2021/11/26 01:09:42;;;;;;;5.90;5.30;;;;;;;11.65;52.75;99321.23;1812488;77;21127;-62
2021/11/26 01:12:11;;;;;;;6.90;6.12;;;;;;;11.65;52.70;99329.21;1816618;77;21081;-62
2021/11/26 01:14:37;;;;;;;6.12;5.53;;;;;;;11.65;52.67;99343.84;1798267;77;21037;-63
2021/11/26 01:17:04;;;;;;;6.65;5.70;;;;;;;11.65;52.64;99317.23;1816547;77;21105;-63
2021/11/26 01:19:32;;;;;;;6.25;5.58;;;;;;;11.65;52.61;99334.53;1809445;78;21068;-62
2021/11/26 01:21:58;;;;;;;6.75;5.12;;;;;;;11.63;52.58;99329.42;1816752;78;21184;-64
2021/11/26 01:24:25;;;;;;;5.85;5.25;;;;;;;11.63;52.57;99324.58;1804318;78;21582;-63
2021/11/26 01:26:51;;;;;;;6.30;5.70;;;;;;;11.63;52.55;99301.97;1799583;78;20973;-63
2021/11/26 01:29:17;;;;;;;7.00;6.30;;;;;;;11.64;52.53;99320.41;1794613;78;21069;-63
2021/11/26 01:31:45;;;;;;;7.15;5.75;;;;;;;11.63;52.48;99306.80;1803996;78;21044;-63
2021/11/26 01:34:12;;;;;;;6.35;5.75;;;;;;;11.64;52.47;99296.98;1800907;78;22273;-63
2021/11/26 01:36:40;;;;;;;6.17;5.58;;;;;;;11.63;52.42;99304.62;1814316;78;22158;-63
2021/11/26 01:39:07;;;;;;;6.70;5.75;;;;;;;11.63;52.42;99312.61;1778001;80;21514;-62
2021/11/26 01:41:35;;;;;;;5.92;5.33;;;;;;;11.62;52.41;99306.47;1800725;78;21013;-62
2021/11/26 01:44:03;;;;;;;6.92;5.30;;;;;;;11.62;52.40;99307.80;1800768;78;21073;-62
2021/11/26 01:46:30;;;;;;;6.97;6.28;;;;;;;11.62;52.37;99311.79;1799296;78;21170;-63
2021/11/26 01:48:57;;;;;;;6.70;6.10;;;;;;;11.61;52.36;99309.64;1797191;78;21038;-62
2021/11/26 01:51:24;;;;;;;8.20;6.50;;;;;;;11.60;52.34;99310.64;1808451;78;20999;-61
2021/11/26 01:53:50;;;;;;;6.35;5.72;;;;;;;11.60;52.31;99309.31;1800297;78;20998;-62
2021/11/26 01:56:17;;;;;;;7.92;6.28;;;;;;;11.60;52.30;99296.01;1805145;78;21121;-61
2021/11/26 01:58:44;;;;;;;6.50;5.83;;;;;;;11.61;52.26;99303.51;1817182;78;21081;-62
2021/11/26 02:01:10;;;;;;;6.78;6.05;;;;;;;11.59;52.24;99310.34;1805540;78;21220;-61
2021/11/26 02:03:37;;;;;;;6.42;5.83;;;;;;;11.60;52.23;99293.86;1800786;77;21010;-62
2021/11/26 02:06:03;;;;;;;6.80;5.80;;;;;;;11.59;52.22;99286.91;1786419;78;21569;-62
2021/11/26 02:08:30;;;;;;;6.80;6.00;;;;;;;11.59;52.21;99294.89;1805780;78;21022;-62
2021/11/26 02:10:57;;;;;;;6.60;5.92;;;;;;;11.59;52.18;99295.70;1812758;78;21067;-62
2021/11/26 02:13:23;;;;;;;6.00;5.40;;;;;;;11.60;52.14;99289.88;1815949;78;21053;-61
2021/11/26 02:15:52;;;;;;;7.08;6.35;;;;;;;11.59;52.13;99305.02;1808872;78;21529;-62
2021/11/26 02:18:20;;;;;;;6.28;5.55;;;;;;;11.59;52.13;99294.38;1832159;77;21049;-61
2021/11/26 02:20:46;;;;;;;7.12;6.12;;;;;;;11.59;52.10;99317.50;1833988;77;20995;-62
2021/11/26 02:23:13;;;;;;;6.47;5.87;;;;;;;11.58;52.10;99301.20;1843521;77;21517;-62
2021/11/26 02:25:40;;;;;;;7.50;5.92;;;;;;;11.58;52.08;99291.38;1843454;77;21013;-62
2021/11/26 02:28:08;;;;;;;7.65;6.85;;;;;;;11.57;52.07;99288.90;1843447;77;21068;-62
2021/11/26 02:30:34;;;;;;;6.65;5.95;;;;;;;11.58;52.04;99281.25;1838877;76;21037;-63
2021/11/26 02:33:06;;;;;;;6.05;5.45;;;;;;;11.56;52.02;99279.28;1842927;77;21002;-62
2021/11/26 02:35:34;;;;;;;6.20;5.60;;;;;;;11.57;52.00;99295.55;1826139;77;21138;-61
2021/11/26 02:38:01;;;;;;;7.80;6.62;;;;;;;11.55;52.02;99280.28;1826132;77;20975;-62
2021/11/26 02:40:29;;;;;;;6.05;5.45;;;;;;;11.55;51.98;99283.79;1836954;77;21037;-61
2021/11/26 02:42:55;;;;;;;7.95;6.78;;;;;;;11.54;51.98;99288.77;1827160;77;21005;-61
2021/11/26 02:45:23;;;;;;;6.65;5.85;;;;;;;11.55;51.96;99272.30;1833711;77;21014;-62
2021/11/26 02:47:50;;;;;;;6.90;6.08;;;;;;;11.54;51.95;99271.48;1840589;77;21038;-62
2021/11/26 02:50:17;;;;;;;6.78;5.90;;;;;;;11.54;51.93;99268.00;1834676;77;21029;-62
2021/11/26 02:52:44;;;;;;;6.58;5.97;;;;;;;11.52;51.91;99269.52;1819551;77;21064;-62
2021/11/26 02:55:16;;;;;;;6.50;5.90;;;;;;;11.53;51.90;99283.16;1843713;77;21002;-61
2021/11/26 02:57:43;;;;;;;7.35;6.42;;;;;;;11.52;51.89;99273.50;1830331;77;21037;-62
2021/11/26 03:00:13;;;;;;;6.78;6.17;;;;;;;11.53;51.86;99269.00;1831592;77;21131;-62
2021/11/26 03:02:40;;;;;;;6.40;5.80;;;;;;;11.51;51.86;99257.72;1828776;77;21042;-61
2021/11/26 03:05:09;;;;;;;6.40;5.80;;;;;;;11.51;51.85;99286.98;1838192;77;21035;-62
2021/11/26 03:07:36;;;;;;;6.87;6.17;;;;;;;11.51;51.84;99279.00;1823913;77;21018;-61
2021/11/26 03:10:04;;;;;;;6.58;5.97;;;;;;;11.50;51.81;99267.55;1838133;77;21509;-62
2021/11/26 03:12:32;;;;;;;6.47;5.70;;;;;;;11.50;51.81;99253.43;1833025;77;21163;-62
2021/11/26 03:14:58;;;;;;;6.80;6.10;;;;;;;11.49;51.81;99251.28;1820829;77;21522;-64
2021/11/26 03:17:25;;;;;;;7.80;6.00;;;;;;;11.48;51.78;99261.59;1789882;78;21108;-61
2021/11/26 03:19:52;;;;;;;6.62;5.97;;;;;;;11.47;51.79;99226.67;1781520;80;21075;-62
2021/11/26 03:22:18;;;;;;;7.28;6.45;;;;;;;11.48;51.75;99232.84;1813587;78;20989;-62
2021/11/26 03:24:45;;;;;;;7.58;6.78;;;;;;;11.47;51.75;99246.63;1808997;78;21591;-62
2021/11/26 03:27:13;;;;;;;8.38;6.78;;;;;;;11.45;51.75;99251.31;1805607;78;21672;-62
2021/11/26 03:29:40;;;;;;;6.85;6.15;;;;;;;11.46;51.75;99260.14;1802936;79;21541;-62
2021/11/26 03:32:07;;;;;;;6.85;6.05;;;;;;;11.45;51.75;99263.28;1803277;79;21018;-63
2021/11/26 03:34:35;;;;;;;7.47;6.67;;;;;;;11.44;51.73;99251.01;1810993;79;21076;-61
2021/11/26 03:37:01;;;;;;;7.20;6.30;;;;;;;11.44;51.71;99261.64;1794458;78;21127;-62
2021/11/26 03:39:28;;;;;;;7.97;6.87;;;;;;;11.44;51.70;99252.84;1809532;78;21052;-61
2021/11/26 03:41:54;;;;;;;7.08;6.30;;;;;;;11.44;51.69;99256.84;1814613;78;21053;-62
2021/11/26 03:44:21;;;;;;;7.75;6.95;;;;;;;11.42;51.68;99283.61;1800591;78;21818;-63
2021/11/26 03:46:47;;;;;;;7.45;6.65;;;;;;;11.42;51.65;99253.03;1802158;78;21095;-63
2021/11/26 03:49:14;;;;;;;6.83;6.20;;;;;;;11.41;51.66;99248.22;1809928;79;21453;-63
2021/11/26 03:51:40;;;;;;;6.87;6.15;;;;;;;11.41;51.65;99255.35;1804103;78;20990;-63
2021/11/26 03:54:07;;;;;;;7.62;6.80;;;;;;;11.40;51.64;99273.16;1840405;77;21048;-62
2021/11/26 03:56:33;;;;;;;7.80;6.92;;;;;;;11.40;51.63;99272.34;1851924;77;21045;-62
2021/11/26 03:59:02;;;;;;;7.03;6.33;;;;;;;11.39;51.60;99256.86;1846255;77;21044;-62
2021/11/26 04:01:29;;;;;;;7.12;6.42;;;;;;;11.38;51.60;99238.45;1846620;77;21183;-62
2021/11/26 04:03:55;;;;;;;7.37;6.67;;;;;;;11.38;51.61;99239.78;1836486;77;21028;-62
2021/11/26 04:06:21;;;;;;;6.75;6.05;;;;;;;11.37;51.61;99240.78;1841633;77;21065;-63
2021/11/26 04:08:48;;;;;;;7.35;6.65;;;;;;;11.37;51.61;99248.77;1840598;77;21037;-62
2021/11/26 04:11:16;;;;;;;7.60;6.35;;;;;;;11.36;51.58;99240.48;1809327;78;21067;-62
2021/11/26 04:13:43;;;;;;;7.58;6.78;;;;;;;11.35;51.59;99230.32;1824057;77;21191;-62
2021/11/26 04:16:14;;;;;;;6.45;5.85;;;;;;;11.34;51.60;99227.36;1835708;77;21030;-62
2021/11/26 04:18:42;;;;;;;7.97;6.70;;;;;;;11.33;51.60;99225.70;1829491;77;21494;-62
2021/11/26 04:21:09;;;;;;;6.28;5.67;;;;;;;11.33;51.58;99242.98;1839112;77;21490;-63
2021/11/26 04:23:36;;;;;;;6.67;6.03;;;;;;;11.32;51.58;99244.01;1823834;77;20989;-62
2021/11/26 04:26:04;;;;;;;7.53;6.65;;;;;;;11.32;51.58;99232.52;1839980;77;23246;-62
2021/11/26 04:28:30;;;;;;;8.00;6.42;;;;;;;11.32;51.58;99237.36;1847026;77;21006;-61
2021/11/26 04:33:26;;;;;;;6.67;6.08;;;;;;;11.35;51.58;99239.63;1802345;79;28075;-62
2021/11/26 04:35:52;;;;;;;7.20;6.20;;;;;;;11.28;51.59;99233.91;1742658;81;20962;-62
2021/11/26 04:38:19;;;;;;;7.28;6.33;;;;;;;11.28;51.59;99251.19;1767536;80;21793;-62
2021/11/26 04:40:45;;;;;;;7.10;6.22;;;;;;;11.27;51.57;99230.44;1759408;80;21581;-63
2021/11/26 04:43:12;;;;;;;6.92;6.22;;;;;;;11.27;51.55;99232.27;1772358;80;21517;-63
2021/11/26 04:45:39;;;;;;;7.33;6.60;;;;;;;11.27;51.55;99238.92;1766157;80;21536;-62
2021/11/26 04:48:06;;;;;;;7.65;6.53;;;;;;;11.27;51.54;99224.30;1756870;80;21570;-62
2021/11/26 04:50:32;;;;;;;8.15;6.60;;;;;;;11.26;51.54;99238.59;1770992;80;21145;-62
2021/11/26 04:53:00;;;;;;;6.87;6.22;;;;;;;11.25;51.55;99237.77;1779513;80;20926;-62
2021/11/26 04:55:26;;;;;;;6.80;6.10;;;;;;;11.25;51.54;99226.31;1766542;80;21061;-62
2021/11/26 04:57:53;;;;;;;8.10;6.75;;;;;;;11.25;51.54;99224.98;1787750;80;21081;-62
2021/11/26 05:00:20;;;;;;;7.15;6.12;;;;;;;11.24;51.55;99221.48;1770145;80;21665;-62
2021/11/26 05:02:48;;;;;;;7.12;6.45;;;;;;;11.23;51.54;99225.68;1774293;80;21068;-62
2021/11/26 05:05:15;;;;;;;6.75;6.10;;;;;;;11.23;51.54;99231.00;1761163;80;21545;-62
2021/11/26 05:07:41;;;;;;;6.83;6.22;;;;;;;11.23;51.53;99241.63;1776679;80;21541;-62
2021/11/26 05:10:09;;;;;;;7.30;6.47;;;;;;;11.22;51.54;99238.13;1766177;80;21551;-62
2021/11/26 05:12:47;;;;;;;7.00;6.33;;;;;;;11.20;51.52;99246.31;1769827;80;21096;-62
2021/11/26 05:15:08;;;;;;;7.50;6.67;;;;;;;11.21;51.50;99252.45;1779073;80;21889;-62
2021/11/26 05:17:36;;;;;;;8.18;6.40;;;;;;;11.20;51.52;99242.33;1764409;80;20995;-63
2021/11/26 05:20:04;;;;;;;6.83;6.15;;;;;;;11.20;51.50;99238.82;1776367;80;21043;-62
2021/11/26 05:22:30;;;;;;;6.30;5.70;;;;;;;11.19;51.50;99243.32;1761368;80;21051;-62
2021/11/26 05:24:57;;;;;;;7.08;6.37;;;;;;;11.18;51.51;99244.34;1767041;80;21112;-62
2021/11/26 05:27:24;;;;;;;7.20;6.03;;;;;;;11.18;51.50;99230.20;1758750;80;21143;-62
2021/11/26 05:29:51;;;;;;;6.97;6.28;;;;;;;11.19;51.47;99222.56;1769789;80;21029;-61
2021/11/26 05:32:17;;;;;;;7.33;6.60;;;;;;;11.18;51.47;99227.55;1775427;80;21013;-61
2021/11/26 05:34:44;;;;;;;6.70;6.10;;;;;;;11.18;51.44;99224.89;1760964;80;21014;-61
2021/11/26 05:37:11;;;;;;;6.17;5.60;;;;;;;11.17;51.45;99228.06;1748545;80;21067;-62
2021/11/26 05:39:38;;;;;;;8.15;6.85;;;;;;;11.17;51.43;99230.72;1761339;80;21140;-62
2021/11/26 05:42:04;;;;;;;7.47;6.75;;;;;;;11.18;51.44;99228.88;1754621;80;21105;-62
2021/11/26 05:44:31;;;;;;;6.90;6.17;;;;;;;11.16;51.44;99212.28;1754777;80;21023;-62
2021/11/26 05:46:58;;;;;;;7.17;6.45;;;;;;;11.16;51.43;99220.27;1750412;80;21054;-63
2021/11/26 05:49:24;;;;;;;7.00;6.30;;;;;;;11.15;51.45;99232.73;1771475;80;21518;-64
2021/11/26 05:51:50;;;;;;;6.55;5.87;;;;;;;11.16;51.44;99235.73;1751197;80;22123;-62
2021/11/26 05:54:17;;;;;;;7.20;6.35;;;;;;;11.16;51.41;99220.27;1748288;80;21033;-62
2021/11/26 05:56:43;;;;;;;6.80;6.20;;;;;;;11.16;51.43;99221.11;1764764;80;21095;-62
2021/11/26 05:59:10;;;;;;;7.05;6.45;;;;;;;11.15;51.40;99211.98;1754058;80;21006;-63
2021/11/26 06:01:36;;;;;;;6.62;6.00;;;;;;;11.15;51.40;99218.11;1755726;80;21038;-62
2021/11/26 06:04:03;;;;;;;7.33;6.60;;;;;;;11.16;51.40;99224.25;1762236;80;21546;-63
2021/11/26 06:06:30;;;;;;;7.03;6.33;;;;;;;11.15;51.39;99229.27;1759134;80;21065;-63
2021/11/26 06:08:57;;;;;;;6.78;6.17;;;;;;;11.15;51.39;99214.13;1758121;80;21087;-63
2021/11/26 06:11:24;;;;;;;6.97;6.28;;;;;;;11.16;51.38;99221.59;1760252;80;21119;-64
2021/11/26 06:13:51;;;;;;;6.90;6.22;;;;;;;11.15;51.41;99227.42;1753935;80;21045;-63
2021/11/26 06:16:17;;;;;;;6.92;6.28;;;;;;;11.14;51.38;99214.30;1762586;80;21218;-63
2021/11/26 06:18:45;;;;;;;6.78;6.17;;;;;;;11.15;51.39;99218.63;1745452;80;21077;-63
2021/11/26 06:21:13;;;;;;;6.97;6.28;;;;;;;11.14;51.36;99216.97;1755066;80;21046;-63
2021/11/26 06:23:39;;;;;;;6.97;6.28;;;;;;;11.15;51.38;99220.77;1750971;80;21050;-62
2021/11/26 06:26:05;;;;;;;6.35;5.58;;;;;;;11.14;51.35;99212.98;1746745;80;21035;-63
2021/11/26 06:28:33;;;;;;;7.05;6.35;;;;;;;11.15;51.37;99227.94;1752946;80;21031;-62
2021/11/26 06:31:00;;;;;;;6.85;6.10;;;;;;;11.15;51.35;99222.62;1755757;80;21154;-63
2021/11/26 06:33:27;;;;;;;6.72;6.03;;;;;;;11.15;51.37;99234.58;1770220;80;21166;-63
2021/11/26 06:35:54;;;;;;;6.60;5.67;;;;;;;11.14;51.37;99239.05;1778522;80;21030;-63
2021/11/26 06:38:21;;;;;;;6.67;6.08;;;;;;;11.12;51.35;99245.05;1759122;80;21070;-63
2021/11/26 06:40:47;;;;;;;7.30;6.10;;;;;;;11.15;51.34;99235.39;1756599;80;21119;-64
2021/11/26 06:43:14;;;;;;;6.87;6.17;;;;;;;11.15;51.35;99243.88;1762897;80;21057;-64
2021/11/26 06:45:40;;;;;;;6.83;6.10;;;;;;;11.14;51.33;99235.06;1769915;80;21049;-63
2021/11/26 06:48:07;;;;;;;6.28;5.67;;;;;;;11.15;51.34;99240.71;1756576;80;21050;-63
2021/11/26 06:50:34;;;;;;;7.28;6.58;;;;;;;11.16;51.34;99241.53;1759832;80;21053;-64
2021/11/26 06:53:00;;;;;;;6.62;5.92;;;;;;;11.16;51.34;99245.52;1771085;80;21120;-63
2021/11/26 06:55:27;;;;;;;7.53;6.67;;;;;;;11.16;51.31;99241.05;1752501;80;21877;-63
2021/11/26 06:57:53;;;;;;;6.92;5.90;;;;;;;11.17;51.33;99240.53;1764145;80;21593;-64
2021/11/26 07:00:21;;;;;;;6.85;6.25;;;;;;;11.17;51.29;99227.24;1766823;80;20998;-63
2021/11/26 07:02:49;;;;;;;7.45;5.95;;;;;;;11.18;51.29;99244.83;1766758;80;21148;-63
2021/11/26 07:05:16;;;;;;;6.90;6.20;;;;;;;11.18;51.28;99250.99;1766909;80;21073;-63
2021/11/26 07:07:42;;;;;;;6.83;6.15;;;;;;;11.19;51.29;99248.64;1746805;80;21010;-63
2021/11/26 07:10:11;;;;;;;7.00;6.30;;;;;;;11.19;51.28;99239.33;1773600;80;21114;-62
2021/11/26 07:12:38;;;;;;;7.22;5.97;;;;;;;11.19;51.26;99234.02;1774011;80;21030;-63
2021/11/26 07:15:08;;;;;;;6.75;6.05;;;;;;;11.21;51.27;99237.83;1766223;80;21336;-63
2021/11/26 07:17:34;;;;;;;7.05;6.35;;;;;;;11.21;51.27;99237.31;1763487;80;21080;-63
2021/11/26 07:20:02;;;;;;;7.03;6.30;;;;;;;11.24;51.26;99228.12;1761307;80;21057;-63
2021/11/26 07:22:30;;;;;;;6.40;5.78;;;;;;;11.25;51.23;99223.66;1764527;80;21046;-62
2021/11/26 07:24:56;;;;;;;7.62;5.95;;;;;;;11.26;51.32;99214.17;1760815;80;21054;-61
2021/11/26 07:27:23;;;;;;;6.30;5.67;;;;;;;11.28;51.45;99216.63;1764082;80;21055;-61
2021/11/26 07:29:51;;;;;;;6.85;6.15;;;;;;;11.29;51.48;99227.08;1760885;80;21105;-62
2021/11/26 07:32:18;;;;;;;6.87;6.17;;;;;;;11.32;51.47;99223.22;1765010;80;21055;-61
2021/11/26 07:34:45;;;;;;;7.08;6.37;;;;;;;11.33;51.45;99227.54;1729112;81;21033;-61
2021/11/26 07:37:12;;;;;;;6.60;5.95;;;;;;;11.35;51.44;99232.17;1735033;80;21445;-61
2021/11/26 07:39:39;;;;;;;6.47;5.87;;;;;;;11.37;51.39;99227.48;1737621;81;21304;-62
2021/11/26 07:42:09;;;;;;;6.55;5.85;;;;;;;11.39;51.37;99220.96;1745559;81;22404;-61
2021/11/26 07:44:36;;;;;;;6.30;5.70;;;;;;;11.40;51.35;99217.30;1718643;82;21097;-62
2021/11/26 07:47:04;;;;;;;6.67;5.75;;;;;;;11.43;51.33;99223.26;1737467;82;21025;-62
2021/11/26 07:49:31;;;;;;;6.95;6.10;;;;;;;11.46;51.30;99229.55;1735396;81;21034;-61
2021/11/26 07:52:00;;;;;;;6.53;5.92;;;;;;;11.48;51.27;99238.98;1729458;80;21038;-63
2021/11/26 07:54:28;;;;;;;6.70;6.10;;;;;;;11.50;51.22;99221.00;1734741;80;21683;-62
2021/11/26 07:56:56;;;;;;;6.80;6.10;;;;;;;11.54;51.19;99224.11;1730501;82;21094;-62
2021/11/26 07:59:26;;;;;;;5.95;5.35;;;;;;;11.56;51.14;99234.06;1742301;82;21081;-62
2021/11/26 08:01:53;;;;;;;5.90;5.33;;;;;;;11.58;51.09;99218.22;1734006;82;21070;-63
2021/11/26 08:04:20;;;;;;;6.40;5.80;;;;;;;11.60;51.07;99215.37;1745486;80;21058;-63
2021/11/26 08:06:47;;;;;;;6.28;5.67;;;;;;;11.64;51.02;99229.14;1736273;82;21200;-61
2021/11/26 08:09:14;;;;;;;7.40;5.75;;;;;;;11.66;51.01;99227.92;1740766;82;21077;-63
2021/11/26 08:11:43;;;;;;;6.83;5.80;;;;;;;11.68;50.96;99234.39;1740217;81;20985;-61
2021/11/26 08:14:11;;;;;;;6.33;5.65;;;;;;;11.72;50.93;99231.67;1745379;80;21038;-61
2021/11/26 08:16:38;;;;;;;5.95;5.35;;;;;;;11.73;50.87;99220.84;1733150;81;21105;-62
2021/11/26 08:19:05;;;;;;;6.17;5.50;;;;;;;11.77;50.84;99227.44;1727070;82;21091;-61
2021/11/26 08:21:33;;;;;;;5.75;5.17;;;;;;;11.83;50.80;99237.02;1734455;82;21006;-60
2021/11/26 08:24:01;;;;;;;6.00;5.25;;;;;;;11.86;50.76;99240.14;1735167;80;21658;-60
2021/11/26 08:26:29;;;;;;;5.67;4.97;;;;;;;11.90;50.69;99251.23;1722983;82;21598;-61
2021/11/26 08:28:56;;;;;;;6.40;5.58;;;;;;;11.93;50.66;99241.04;1745962;82;21089;-65
2021/11/26 08:31:23;;;;;;;6.90;6.00;;;;;;;11.97;50.61;99226.84;1740962;80;21090;-62
2021/11/26 08:33:50;;;;;;;5.90;5.30;;;;;;;12.00;50.57;99233.95;1737049;80;21055;-61
2021/11/26 08:36:16;;;;;;;6.90;6.20;;;;;;;12.05;50.53;99230.70;1751617;81;21001;-60
2021/11/26 08:38:43;;;;;;;6.62;5.92;;;;;;;12.09;50.47;99219.17;1757244;81;21058;-61
2021/11/26 08:41:10;;;;;;;6.47;5.87;;;;;;;12.15;50.44;99219.77;1755044;81;21035;-61
2021/11/26 08:43:36;;;;;;;5.83;5.12;;;;;;;12.20;50.39;99232.80;1763145;81;21950;-59
2021/11/26 08:46:02;;;;;;;6.22;5.62;;;;;;;12.26;50.35;99223.73;1745543;81;21665;-58
2021/11/26 08:48:29;;;;;;;6.97;6.28;;;;;;;12.34;50.30;99219.60;1748684;81;21105;-59
2021/11/26 08:50:55;;;;;;;6.03;5.42;;;;;;;12.41;50.22;99217.01;1746317;81;21065;-59
2021/11/26 08:53:22;;;;;;;5.62;5.12;;;;;;;12.49;50.15;99194.22;1746968;81;21065;-59
2021/11/26 08:55:55;;;;;;;5.45;4.87;;;;;;;12.57;50.07;99192.73;1751169;81;21226;-59
2021/11/26 08:58:22;;;;;;;6.15;5.55;;;;;;;12.64;49.99;99194.94;1754238;81;26058;-59
2021/11/26 09:00:48;;;;;;;5.87;5.28;;;;;;;12.73;49.90;99188.96;1746251;81;21101;-59
2021/11/26 09:03:16;;;;;;;6.35;5.75;;;;;;;12.79;49.87;99183.66;1755902;81;21084;-58
2021/11/26 09:05:44;;;;;;;7.03;5.22;;;;;;;12.87;49.80;99185.86;1749406;81;21565;-61
2021/11/26 09:08:14;;;;;;;5.80;5.20;;;;;;;12.92;49.75;99170.92;1743562;81;21734;-60
2021/11/26 09:10:44;;;;;;;5.30;4.80;;;;;;;12.99;49.69;99168.28;1759526;81;21058;-60
2021/11/26 09:13:13;;;;;;;5.80;5.20;;;;;;;13.05;49.63;99174.14;1762551;80;21046;-59
2021/11/26 09:15:42;;;;;;;6.22;5.05;;;;;;;13.10;49.59;99168.23;1758369;81;21043;-61
2021/11/26 09:18:10;;;;;;;6.25;5.10;;;;;;;13.15;49.54;99168.45;1753066;81;21077;-60
2021/11/26 09:20:37;;;;;;;5.72;5.12;;;;;;;13.21;49.49;99162.83;1735828;81;21142;-60
2021/11/26 09:23:05;;;;;;;5.95;5.25;;;;;;;13.25;49.43;99154.73;1741613;81;21116;-63
2021/11/26 09:25:32;;;;;;;6.37;5.17;;;;;;;13.28;49.40;99163.17;1744597;81;21018;-61
2021/11/26 09:27:59;;;;;;;5.90;5.20;;;;;;;13.32;49.35;99149.77;1742757;81;21784;-61
2021/11/26 09:30:27;;;;;;;5.55;4.80;;;;;;;13.35;49.33;99145.89;1740172;81;21058;-60
2021/11/26 09:32:54;;;;;;;5.42;4.72;;;;;;;13.39;49.28;99144.47;1740880;81;21079;-61
2021/11/26 09:35:21;;;;;;;5.20;4.70;;;;;;;13.42;49.21;99133.38;1743878;80;21590;-60
2021/11/26 09:37:48;;;;;;;5.08;4.58;;;;;;;13.48;49.17;99133.93;1761108;80;21612;-61
2021/11/26 09:40:15;;;;;;;7.35;5.25;;;;;;;13.54;49.08;99134.45;1756070;80;22252;-61
2021/11/26 09:42:43;;;;;;;5.45;4.90;;;;;;;13.62;49.00;99135.27;1759814;80;21538;-59
2021/11/26 09:45:13;;;;;;;5.35;4.85;;;;;;;13.69;48.92;99105.41;1753621;80;21096;-60
2021/11/26 09:47:41;;;;;;;5.47;4.85;;;;;;;13.76;48.85;99102.24;1748540;80;21057;-60
2021/11/26 09:50:08;;;;;;;4.80;4.40;;;;;;;13.84;48.78;99110.05;1761341;80;21054;-59
2021/11/26 09:52:41;;;;;;;5.37;4.87;;;;;;;13.90;48.73;99101.21;1762868;80;21494;-59
2021/11/26 09:55:09;;;;;;;4.58;4.17;;;;;;;13.96;48.64;99093.73;1765009;80;21038;-59
2021/11/26 09:57:36;;;;;;;5.65;4.97;;;;;;;14.03;48.55;99082.23;1767141;80;21589;-60
2021/11/26 10:00:05;;;;;;;7.00;4.65;;;;;;;14.09;48.49;99080.88;1726123;81;21098;-61
2021/11/26 10:02:31;;;;;;;4.33;3.92;;;;;;;14.14;48.43;99067.72;1748513;80;21026;-61
2021/11/26 10:05:08;;;;;;;5.25;4.50;;;;;;;14.22;48.35;99064.02;1764862;80;21136;-60
2021/11/26 10:07:45;;;;;;;5.42;4.35;;;;;;;14.28;48.25;99057.83;1743148;80;21042;-60
2021/11/26 10:10:13;;;;;;;4.83;4.25;;;;;;;14.33;48.17;99054.52;1743527;80;21181;-60
2021/11/26 10:12:41;;;;;;;6.15;4.58;;;;;;;14.37;48.11;99057.11;1752252;80;21041;-61
2021/11/26 10:15:08;;;;;;;5.33;4.83;;;;;;;14.41;48.01;99063.67;1744372;80;21018;-62
2021/11/26 10:17:35;;;;;;;3.75;3.37;;;;;;;14.45;48.00;99014.64;1759060;80;21652;-63
2021/11/26 10:20:08;;;;;;;3.83;2.92;;;;;;;14.59;60.43;99063.03;1766835;80;20995;-61
2021/11/26 10:22:42;;;;;;;3.12;2.83;;;;;;;14.78;61.19;99057.30;1769739;80;21339;-63
2021/11/26 10:25:16;;;;;;;3.27;2.98;;;;;;;14.89;59.71;99054.47;1761189;80;21533;-62
2021/11/26 10:28:02;;;;;;;3.65;2.80;;;;;;;14.95;58.17;99067.01;1770101;80;21085;-62
2021/11/26 10:30:38;;;;;;;3.20;2.90;;;;;;;14.99;57.17;99050.84;1762073;80;21041;-61
2021/11/26 10:33:18;;;;;;;4.95;3.55;;;;;;;15.00;56.44;99059.15;1768432;80;21058;-60
2021/11/26 10:35:50;;;;;;;5.22;3.40;;;;;;;15.02;56.12;99061.09;1759167;80;21121;-62
2021/11/26 10:38:21;;;;;;;4.47;3.20;;;;;;;15.04;55.80;99059.55;1760516;80;21069;-61
2021/11/26 10:40:53;;;;;;;4.03;3.27;;;;;;;15.06;55.37;99065.50;1766530;80;21116;-61
2021/11/26 10:43:48;;;;;;;4.20;3.25;;;;;;;15.07;54.90;99067.16;1768396;80;22003;-61
2021/11/26 10:51:43;;;;;;;4.30;3.47;;;;;;;15.11;54.01;99054.47;1750760;80;21081;-60
2021/11/26 10:59:27;;;;;;;3.87;2.92;;;;;;;15.25;53.14;99045.02;1757338;80;21581;-61
2021/11/26 11:01:55;;;;;;;4.05;3.42;;;;;;;15.30;52.85;99047.88;1764371;80;21068;-61
2021/11/26 11:04:24;;;;;;;3.77;3.05;;;;;;;15.37;52.53;99038.45;1762436;80;21057;-61
2021/11/26 11:07:08;;;;;;;3.17;2.87;;;;;;;15.41;52.29;99049.84;1764632;80;21618;-60
2021/11/26 11:09:39;;;;;;;;;;;;;;;15.47;51.98;99036.95;1753687;80;21499;-60
2021/11/26 11:12:06;;;;;;;3.35;3.05;;;;;;;15.53;51.70;99032.06;1766730;80;20174;-61
2021/11/26 11:14:33;;;;;;;3.90;3.20;;;;;;;15.54;51.57;99040.38;1752748;80;21056;-62
2021/11/26 11:17:00;;;;;;;3.30;2.98;;;;;;;15.59;51.35;99050.95;1747752;80;21009;-61
2021/11/26 11:19:26;;;;;;;4.87;3.27;;;;;;;15.64;51.13;99031.05;1752971;80;21493;-61
2021/11/26 11:21:55;;;;;;;4.75;3.20;;;;;;;15.68;50.99;99017.52;1748891;80;21036;-61
2021/11/26 11:24:22;;;;;;;3.30;3.00;;;;;;;15.72;50.80;99027.59;1743223;80;21538;-61
2021/11/26 11:26:49;;;;;;;3.60;3.25;;;;;;;15.76;50.60;99026.67;1747304;80;21092;-60
2021/11/26 11:29:25;;;;;;;4.15;3.42;;;;;;;15.80;50.44;99024.35;1751494;80;21046;-62
2021/11/26 11:31:54;;;;;;;3.72;2.90;;;;;;;15.82;50.31;99026.28;1754718;80;21081;-62
2021/11/26 11:34:24;;;;;;;3.92;3.33;;;;;;;15.84;50.16;99029.06;1745498;80;21042;-61
2021/11/26 11:36:53;;;;;;;3.50;3.10;;;;;;;15.87;50.04;99025.93;1763147;80;21050;-60
2021/11/26 11:39:20;;;;;;;3.22;2.67;;;;;;;15.88;49.93;99026.24;1743748;80;21125;-61
2021/11/26 11:41:59;;;;;;;3.75;3.22;;;;;;;15.90;49.78;99021.48;1746884;80;21124;-61
2021/11/26 11:44:34;;;;;;;3.87;2.87;;;;;;;15.92;49.69;99018.06;1760258;80;21018;-62
2021/11/26 11:47:04;;;;;;;3.10;2.70;;;;;;;15.95;49.56;99013.30;1689991;82;21546;-61
2021/11/26 11:49:32;;;;;;;3.90;2.85;;;;;;;15.96;49.47;99017.64;1741232;80;21092;-62